createdAt,value
2023-03-22T00:02:00.589Z,2.28
2023-03-22T00:04:27.102Z,1.90
2023-03-22T00:06:53.706Z,1.77
2023-03-22T00:09:20.434Z,1.40
2023-03-22T00:11:50.869Z,1.27
2023-03-22T00:14:18.842Z,1.77
2023-03-22T00:16:46.416Z,1.87
2023-03-22T00:19:13.191Z,1.25
2023-03-22T00:21:39.784Z,1.98
2023-03-22T00:24:06.733Z,2.10
2023-03-22T00:26:33.416Z,1.65
2023-03-22T00:29:00.795Z,2.30
2023-03-22T00:31:27.477Z,2.13
2023-03-22T00:33:54.175Z,2.28
2023-03-22T00:36:21.158Z,2.20
2023-03-22T00:38:48.084Z,2.20
2023-03-22T00:41:20.362Z,2.47
2023-03-22T00:43:48.329Z,3.03
2023-03-22T00:46:16.835Z,2.78
2023-03-22T00:48:44.286Z,3.63
2023-03-22T00:51:11.468Z,2.55
2023-03-22T00:53:42.397Z,3.57
2023-03-22T00:56:13.844Z,3.20
2023-03-22T00:58:40.953Z,3.42
2023-03-22T01:01:08.350Z,3.47
2023-03-22T01:03:35.161Z,2.70
2023-03-22T01:06:01.972Z,2.53
2023-03-22T01:08:33.336Z,2.50
2023-03-22T01:11:01.251Z,2.17
2023-03-22T01:13:28.974Z,2.42
2023-03-22T01:15:56.032Z,3.38
2023-03-22T01:18:23.024Z,4.40
2023-03-22T01:20:49.620Z,4.65
2023-03-22T01:23:16.185Z,3.80
2023-03-22T01:25:42.926Z,3.72
2023-03-22T01:28:09.815Z,4.82
2023-03-22T01:30:37.002Z,4.17
2023-03-22T01:33:03.894Z,3.22
2023-03-22T01:35:30.878Z,4.47
2023-03-22T01:37:57.479Z,3.42
2023-03-22T01:40:26.269Z,3.70
2023-03-22T01:42:54.341Z,3.20
2023-03-22T01:45:41.563Z,3.33
2023-03-22T01:48:08.119Z,3.53
2023-03-22T01:50:37.524Z,3.55
2023-03-22T01:53:06.729Z,3.88
2023-03-22T01:55:34.045Z,4.33
2023-03-22T01:58:01.688Z,3.22
2023-03-22T02:00:28.264Z,3.58
2023-03-22T02:02:54.906Z,4.13
2023-03-22T02:05:24.647Z,3.55
2023-03-22T02:07:53.068Z,2.67
2023-03-22T02:10:23.375Z,4.10
2023-03-22T02:13:17.808Z,5.30
2023-03-22T02:16:13.235Z,3.45
2023-03-22T02:18:59.249Z,4.97
2023-03-22T02:22:00.559Z,5.17
2023-03-22T02:24:34.948Z,3.72
2023-03-22T02:27:20.909Z,2.53
2023-03-22T02:29:59.817Z,3.92
2023-03-22T02:32:50.776Z,3.80
2023-03-22T02:35:35.893Z,3.30
2023-03-22T02:38:31.964Z,2.97
2023-03-22T02:41:24.473Z,2.92
2023-03-22T02:44:08.870Z,4.03
2023-03-22T02:46:52.671Z,3.88
2023-03-22T02:49:26.988Z,4.00
2023-03-22T02:52:18.835Z,4.50
2023-03-22T02:55:07.617Z,4.03
2023-03-22T02:57:44.253Z,4.05
2023-03-22T03:00:14.039Z,4.20
2023-03-22T03:02:49.572Z,3.63
2023-03-22T03:05:18.115Z,3.60
2023-03-22T03:07:49.192Z,3.72
2023-03-22T03:10:18.076Z,4.22
2023-03-22T03:12:44.630Z,3.42
2023-03-22T03:15:19.606Z,3.60
2023-03-22T03:18:00.432Z,4.38
2023-03-22T03:21:00.407Z,3.47
2023-03-22T03:23:42.186Z,2.80
2023-03-22T03:26:11.449Z,3.15
2023-03-22T03:28:58.010Z,2.70
2023-03-22T03:31:49.103Z,3.13
2023-03-22T03:34:26.655Z,3.25
2023-03-22T03:37:17.444Z,2.90
2023-03-22T03:39:48.843Z,4.10
2023-03-22T03:42:18.340Z,2.17
2023-03-22T03:44:45.505Z,3.63
2023-03-22T03:47:13.245Z,2.80
2023-03-22T03:49:39.977Z,2.38
2023-03-22T03:52:06.861Z,3.03
2023-03-22T03:54:33.652Z,2.43
2023-03-22T03:57:03.470Z,2.47
2023-03-22T03:59:30.587Z,2.60
2023-03-22T04:01:57.203Z,2.80
2023-03-22T04:04:27.156Z,2.58
2023-03-22T04:06:58.639Z,2.57
2023-03-22T04:09:27.712Z,2.78
2023-03-22T04:11:55.403Z,2.70
2023-03-22T04:14:22.982Z,2.67
2023-03-22T04:16:49.523Z,2.20
2023-03-22T04:19:16.299Z,2.63
2023-03-22T04:21:43.195Z,2.53
2023-03-22T04:24:10.065Z,1.60
2023-03-22T04:26:36.736Z,2.97
2023-03-22T04:29:04.278Z,2.35
2023-03-22T04:31:32.876Z,2.33
2023-03-22T04:34:05.494Z,2.13
2023-03-22T04:36:39.406Z,2.03
2023-03-22T04:39:09.601Z,1.90
2023-03-22T04:41:37.207Z,2.45
2023-03-22T04:44:05.716Z,1.63
2023-03-22T04:46:34.580Z,1.83
2023-03-22T04:49:01.523Z,2.38
2023-03-22T04:51:28.542Z,2.25
2023-03-22T04:53:55.167Z,1.83
2023-03-22T04:56:22.215Z,2.10
2023-03-22T04:58:48.816Z,3.13
2023-03-22T05:01:17.433Z,1.73
2023-03-22T05:03:45.819Z,2.08
2023-03-22T05:06:12.483Z,2.65
2023-03-22T05:08:39.161Z,1.80
2023-03-22T05:11:12.643Z,1.83
2023-03-22T05:13:39.706Z,2.20
2023-03-22T05:16:07.474Z,1.60
2023-03-22T05:18:34.063Z,1.80
2023-03-22T05:21:06.702Z,2.20
2023-03-22T05:23:33.335Z,1.80
2023-03-22T05:26:01.665Z,1.35
2023-03-22T05:28:28.721Z,1.92
2023-03-22T05:30:57.096Z,1.70
2023-03-22T05:33:23.923Z,2.03
2023-03-22T05:35:51.307Z,2.05
2023-03-22T05:38:18.221Z,1.65
2023-03-22T05:40:45.278Z,2.20
2023-03-22T05:43:12.714Z,1.92
2023-03-22T05:45:39.625Z,1.63
2023-03-22T05:48:07.035Z,2.22
2023-03-22T05:50:34.300Z,1.67
2023-03-22T05:53:02.163Z,1.77
2023-03-22T05:55:31.924Z,1.80
2023-03-22T05:57:59.597Z,1.87
2023-03-22T06:00:26.212Z,2.10
2023-03-22T06:02:56.384Z,2.17
2023-03-22T06:05:23.783Z,2.15
2023-03-22T06:07:50.341Z,1.60
2023-03-22T06:10:18.303Z,1.70
2023-03-22T06:12:45.388Z,1.50
2023-03-22T06:15:12.614Z,1.73
2023-03-22T06:17:39.339Z,1.45
2023-03-22T06:20:10.834Z,2.30
2023-03-22T06:22:38.238Z,1.50
2023-03-22T06:25:07.326Z,1.33
2023-03-22T06:27:34.440Z,1.73
2023-03-22T06:30:01.179Z,2.17
2023-03-22T06:32:28.066Z,1.70
2023-03-22T06:34:55.660Z,1.60
2023-03-22T06:37:23.265Z,1.73
2023-03-22T06:39:51.361Z,1.38
2023-03-22T06:42:18.080Z,1.70
2023-03-22T06:44:44.935Z,1.42
2023-03-22T06:47:11.944Z,1.93
2023-03-22T06:49:40.273Z,2.13
2023-03-22T06:52:06.878Z,1.27
2023-03-22T06:54:34.248Z,1.15
2023-03-22T06:57:00.862Z,1.65
2023-03-22T06:59:27.969Z,1.90
2023-03-22T07:01:54.563Z,1.67
2023-03-22T07:04:21.335Z,1.45
2023-03-22T07:06:48.285Z,1.45
2023-03-22T07:09:14.899Z,1.77
2023-03-22T07:11:41.485Z,2.30
2023-03-22T07:14:08.203Z,2.38
2023-03-22T07:16:34.823Z,1.25
2023-03-22T07:19:01.473Z,1.77
2023-03-22T07:21:28.509Z,1.73
2023-03-22T07:23:55.566Z,2.13
2023-03-22T07:26:22.148Z,2.17
2023-03-22T07:28:48.736Z,2.00
2023-03-22T07:31:16.922Z,1.45
2023-03-22T07:33:43.532Z,2.10
2023-03-22T07:36:11.080Z,1.47
2023-03-22T07:38:37.993Z,1.30
2023-03-22T07:41:04.730Z,1.65
2023-03-22T07:43:31.307Z,1.73
2023-03-22T07:45:58.064Z,1.73
2023-03-22T07:48:24.856Z,1.93
2023-03-22T07:50:56.385Z,1.65
2023-03-22T07:53:22.951Z,1.85
2023-03-22T07:55:49.596Z,1.40
2023-03-22T07:58:16.212Z,2.13
2023-03-22T08:00:42.804Z,1.73
2023-03-22T08:03:12.415Z,2.97
2023-03-22T08:05:43.336Z,1.40
2023-03-22T08:08:10.852Z,1.50
2023-03-22T08:10:38.410Z,1.67
2023-03-22T08:13:05.239Z,2.03
2023-03-22T08:15:31.856Z,2.00
2023-03-22T08:17:58.439Z,1.85
2023-03-22T08:20:27.369Z,2.80
2023-03-22T08:22:54.930Z,2.03
2023-03-22T08:25:21.924Z,1.60
2023-03-22T08:27:48.412Z,1.67
2023-03-22T08:30:15.267Z,1.65
2023-03-22T08:32:41.844Z,2.10
2023-03-22T08:35:09.089Z,2.28
2023-03-22T08:37:35.721Z,1.90
2023-03-22T08:40:02.364Z,2.00
2023-03-22T08:42:28.990Z,2.28
2023-03-22T08:44:55.542Z,1.90
2023-03-22T08:47:22.190Z,2.42
2023-03-22T08:49:48.725Z,1.97
2023-03-22T08:52:15.414Z,1.75
2023-03-22T08:54:42.201Z,2.20
2023-03-22T08:57:17.605Z,2.03
2023-03-22T08:59:44.226Z,2.22
2023-03-22T09:02:10.878Z,2.37
2023-03-22T09:04:37.596Z,1.67
2023-03-22T09:07:04.319Z,1.90
2023-03-22T09:09:30.965Z,1.90
2023-03-22T09:11:58.228Z,1.95
2023-03-22T09:14:24.808Z,1.60
2023-03-22T09:16:51.864Z,1.70
2023-03-22T09:19:18.429Z,1.55
2023-03-22T09:21:45.574Z,1.70
2023-03-22T09:24:12.267Z,1.80
2023-03-22T09:26:38.920Z,1.70
2023-03-22T09:29:05.663Z,2.28
2023-03-22T09:31:32.234Z,2.22
2023-03-22T09:33:58.871Z,1.58
2023-03-22T09:36:25.450Z,1.65
2023-03-22T09:38:52.154Z,1.40
2023-03-22T09:41:24.165Z,1.90
2023-03-22T09:44:03.575Z,2.33
2023-03-22T09:46:40.713Z,2.03
2023-03-22T09:49:14.290Z,2.10
2023-03-22T09:51:44.851Z,1.60
2023-03-22T09:54:15.352Z,2.00
2023-03-22T09:56:44.338Z,1.85
2023-03-22T09:59:23.709Z,1.88
2023-03-22T10:02:04.760Z,1.80
2023-03-22T10:04:49.722Z,2.33
2023-03-22T10:07:28.334Z,2.10
2023-03-22T10:09:57.884Z,1.77
2023-03-22T10:12:31.470Z,1.65
2023-03-22T10:15:15.121Z,1.70
2023-03-22T10:17:52.091Z,2.20
2023-03-22T10:20:45.328Z,1.60
2023-03-22T10:23:16.814Z,2.42
2023-03-22T10:25:43.882Z,1.48
2023-03-22T10:28:29.136Z,1.83
2023-03-22T10:30:57.619Z,2.40
2023-03-22T10:33:33.689Z,1.60
2023-03-22T10:36:02.134Z,1.77
2023-03-22T10:38:31.216Z,1.88
2023-03-22T10:40:59.802Z,1.90
2023-03-22T10:43:35.138Z,2.50
2023-03-22T10:46:05.458Z,1.90
2023-03-22T10:48:39.465Z,2.08
2023-03-22T10:51:07.121Z,1.63
2023-03-22T10:53:46.620Z,2.00
2023-03-22T10:56:18.747Z,1.90
2023-03-22T10:58:46.268Z,2.00
2023-03-22T11:01:26.112Z,2.70
2023-03-22T11:03:56.749Z,2.10
2023-03-22T11:06:38.182Z,2.10
2023-03-22T11:09:13.738Z,2.70
2023-03-22T11:11:55.627Z,1.90
2023-03-22T11:14:35.692Z,1.75
2023-03-22T11:17:12.675Z,1.80
2023-03-22T11:19:52.737Z,1.73
2023-03-22T11:22:19.264Z,2.30
2023-03-22T11:24:47.578Z,2.10
2023-03-22T11:27:25.216Z,1.90
2023-03-22T11:29:54.410Z,1.60
2023-03-22T11:32:32.970Z,1.63
2023-03-22T11:35:05.652Z,1.77
2023-03-22T11:37:32.275Z,1.50
2023-03-22T11:40:05.049Z,1.80
2023-03-22T11:42:34.424Z,1.98
2023-03-22T11:45:01.087Z,1.75
2023-03-22T11:47:34.394Z,1.40
2023-03-22T11:50:04.933Z,2.10
2023-03-22T11:52:31.597Z,2.05
2023-03-22T11:54:59.642Z,1.50
2023-03-22T11:57:29.700Z,2.08
2023-03-22T12:00:07.193Z,1.70
2023-03-22T12:02:46.433Z,1.85
2023-03-22T12:05:23.212Z,1.50
2023-03-22T12:07:55.864Z,2.15
2023-03-22T12:10:31.158Z,2.38
2023-03-22T12:13:06.145Z,2.17
2023-03-22T12:15:38.475Z,2.13
2023-03-22T12:18:27.809Z,2.05
2023-03-22T12:20:59.233Z,1.85
2023-03-22T12:23:32.024Z,1.75
2023-03-22T12:26:15.748Z,1.70
2023-03-22T12:28:53.362Z,1.90
2023-03-22T12:31:26.518Z,1.98
2023-03-22T12:33:59.605Z,1.95
2023-03-22T12:36:42.880Z,2.45
2023-03-22T12:39:19.605Z,2.40
2023-03-22T12:41:50.800Z,2.28
2023-03-22T12:44:24.627Z,1.70
2023-03-22T12:47:01.132Z,1.77
2023-03-22T12:49:43.141Z,2.10
2023-03-22T12:52:26.436Z,2.97
2023-03-22T12:54:59.375Z,1.98
2023-03-22T12:57:26.592Z,1.58
2023-03-22T12:59:57.852Z,1.92
2023-03-22T13:02:32.154Z,2.03
2023-03-22T13:05:09.540Z,2.07
2023-03-22T13:07:52.098Z,2.65
2023-03-22T13:10:30.934Z,2.05
2023-03-22T13:13:29.792Z,2.47
2023-03-22T13:16:15.603Z,2.15
2023-03-22T13:18:42.434Z,2.77
2023-03-22T13:21:22.904Z,2.17
2023-03-22T13:23:55.095Z,3.20
2023-03-22T13:26:28.090Z,2.35
2023-03-22T13:28:59.953Z,2.30
2023-03-22T13:31:37.532Z,2.50
2023-03-22T13:34:04.907Z,2.30
2023-03-22T13:36:32.271Z,2.53
2023-03-22T13:39:03.195Z,2.95
2023-03-22T13:41:32.776Z,2.85
2023-03-22T13:44:01.551Z,2.30
2023-03-22T13:46:36.976Z,2.90
2023-03-22T13:49:04.195Z,2.80
2023-03-22T13:51:33.886Z,2.72
2023-03-22T13:54:18.694Z,2.55
2023-03-22T13:56:57.339Z,2.37
2023-03-22T13:59:33.970Z,2.33
2023-03-22T14:02:15.846Z,2.55
2023-03-22T14:04:56.580Z,3.22
2023-03-22T14:07:28.861Z,3.05
2023-03-22T14:10:03.382Z,3.03
2023-03-22T14:12:48.229Z,3.75
2023-03-22T14:15:19.174Z,3.40
2023-03-22T14:17:59.598Z,3.15
2023-03-22T14:20:31.018Z,3.35
